Time;durP1;ratioP1;P1;durP2;ratioP2;P2;SDS_P1;SDS_P2;PMS_P1;PMS_P2;Temp;Humidity;BMP_temperature;BMP_pressure;BME280_temperature;BME280_humidity;BME280_pressure;Samples;Min_cycle;Max_cycle;Signal;HPM_P1;HPM_P2
2023/09/24 00:02:06;;;;;;;2.10;1.35;;;;;;;17.70;nan;100342.09;5040522;28;20044;-67
2023/09/24 00:04:31;;;;;;;7.45;2.05;;;;;;;17.70;nan;100342.09;5040222;28;20017;-67
2023/09/24 00:06:57;;;;;;;3.83;1.45;;;;;;;17.54;nan;100330.72;5040065;28;20060;-66
2023/09/24 00:09:22;;;;;;;9.38;1.85;;;;;;;17.61;nan;100339.19;5039248;28;20025;-66
2023/09/24 00:11:48;;;;;;;6.97;1.40;;;;;;;17.61;nan;100333.09;5036159;28;20055;-66
2023/09/24 00:14:14;;;;;;;2.50;1.42;;;;;;;17.61;nan;100330.41;5038579;28;20021;-66
2023/09/24 00:16:40;;;;;;;5.70;1.60;;;;;;;17.38;nan;100291.91;5020859;28;20035;-68
2023/09/24 00:19:06;;;;;;;5.43;1.75;;;;;;;17.46;nan;100301.22;5040623;28;20041;-68
2023/09/24 00:21:31;;;;;;;3.92;1.75;;;;;;;17.51;nan;100327.81;5038876;28;20048;-68
2023/09/24 00:23:57;;;;;;;7.28;2.03;;;;;;;17.49;nan;100325.41;5035559;28;20680;-69
2023/09/24 00:26:24;;;;;;;5.40;1.63;;;;;;;17.44;nan;100322.78;5037388;28;20025;-69
2023/09/24 00:28:50;;;;;;;2.80;1.45;;;;;;;17.49;nan;100322.75;5035769;28;20036;-69
2023/09/24 00:31:15;;;;;;;3.25;1.50;;;;;;;17.39;nan;100309.50;5037025;28;20037;-69
2023/09/24 00:33:41;;;;;;;5.00;1.50;;;;;;;17.44;nan;100315.56;5037816;28;20410;-68
2023/09/24 00:36:06;;;;;;;3.60;1.73;;;;;;;17.39;nan;100326.25;5038359;28;20040;-68
2023/09/24 00:38:31;;;;;;;4.95;1.35;;;;;;;17.39;nan;100330.78;5039185;28;20096;-68
2023/09/24 00:40:57;;;;;;;6.60;1.50;;;;;;;17.44;nan;100325.44;5036612;28;20493;-69
2023/09/24 00:43:33;;;;;;;8.63;1.90;;;;;;;17.44;nan;100331.56;5036250;28;20493;-68
2023/09/24 00:46:01;;;;;;;4.80;1.83;;;;;;;17.41;nan;100313.47;5036653;28;20053;-68
2023/09/24 00:48:29;;;;;;;5.20;1.80;;;;;;;17.36;nan;100302.84;5033672;28;20053;-68
2023/09/24 00:50:57;;;;;;;7.25;1.75;;;;;;;17.33;nan;100294.59;5036286;28;20026;-68
2023/09/24 00:53:24;;;;;;;5.40;1.60;;;;;;;17.40;nan;100298.53;5038178;28;20078;-69
2023/09/24 00:55:50;;;;;;;6.53;1.63;;;;;;;17.33;nan;100286.59;5035640;28;20052;-68
2023/09/24 00:58:16;;;;;;;6.65;1.60;;;;;;;17.40;nan;100295.09;5039431;28;20028;-68
2023/09/24 01:00:45;;;;;;;9.30;1.50;;;;;;;17.41;nan;100305.47;5035874;28;20036;-68
2023/09/24 01:03:11;;;;;;;5.38;1.60;;;;;;;17.44;nan;100310.25;5035988;28;20113;-75
2023/09/24 01:05:37;;;;;;;5.97;1.85;;;;;;;17.46;nan;100311.88;5037964;28;20174;-72
2023/09/24 01:08:04;;;;;;;7.47;2.03;;;;;;;17.48;nan;100329.16;5034828;28;20044;-73
2023/09/24 01:10:29;;;;;;;5.18;1.48;;;;;;;17.43;nan;100315.88;5019578;28;20037;-74
2023/09/24 01:12:59;;;;;;;3.53;1.25;;;;;;;17.47;nan;100342.72;5037423;28;20091;-75
2023/09/24 01:15:25;;;;;;;2.97;1.30;;;;;;;17.50;nan;100344.84;5038248;28;20056;-73
2023/09/24 01:17:52;;;;;;;2.30;1.27;;;;;;;17.55;nan;100358.13;5037087;28;20033;-74
2023/09/24 01:20:22;;;;;;;8.80;1.90;;;;;;;17.53;nan;100357.63;5034559;28;20025;-74
2023/09/24 01:22:50;;;;;;;7.07;2.00;;;;;;;17.51;nan;100355.22;5037277;28;20037;-74
2023/09/24 01:25:18;;;;;;;3.83;1.30;;;;;;;17.41;nan;100353.41;5035695;28;20033;-74
2023/09/24 01:27:43;;;;;;;3.67;1.67;;;;;;;17.49;nan;100378.66;5036437;28;20145;-74
2023/09/24 01:30:09;;;;;;;4.18;1.65;;;;;;;17.43;nan;100358.47;5037432;28;20147;-75
2023/09/24 01:32:35;;;;;;;7.05;1.48;;;;;;;17.29;nan;100320.19;5037891;28;20028;-74
2023/09/24 01:35:06;;;;;;;5.13;1.60;;;;;;;17.52;nan;100340.03;5034506;28;20029;-74
2023/09/24 01:37:34;;;;;;;4.80;1.35;;;;;;;17.47;nan;100338.19;5034673;28;20032;-75
2023/09/24 01:40:06;;;;;;;7.68;1.60;;;;;;;17.53;nan;100346.97;5035769;28;20029;-74
2023/09/24 01:42:34;;;;;;;3.50;1.33;;;;;;;17.54;nan;100336.03;5019871;28;20052;-75
2023/09/24 01:44:59;;;;;;;5.57;1.70;;;;;;;17.58;nan;100350.41;5034594;28;20041;-75
2023/09/24 01:47:24;;;;;;;5.57;1.70;;;;;;;17.48;nan;100349.63;5034388;28;20025;-74
2023/09/24 01:49:50;;;;;;;3.72;1.67;;;;;;;17.54;nan;100368.00;5037867;28;20025;-73
2023/09/24 01:52:16;;;;;;;5.97;1.75;;;;;;;17.60;nan;100377.56;5033994;28;20156;-74
2023/09/24 01:54:41;;;;;;;5.00;1.70;;;;;;;17.54;nan;100359.22;5038765;28;20206;-75
2023/09/24 01:57:07;;;;;;;8.85;1.80;;;;;;;17.63;nan;100379.69;5036624;28;20028;-74
2023/09/24 01:59:34;;;;;;;5.68;2.00;;;;;;;17.62;nan;100386.09;5036140;28;20049;-74
2023/09/24 02:01:59;;;;;;;6.03;1.70;;;;;;;17.63;nan;100390.31;5034878;28;20082;-74
2023/09/24 02:04:24;;;;;;;4.43;1.90;;;;;;;17.63;nan;100387.66;5034345;28;20028;-74
2023/09/24 02:06:50;;;;;;;4.93;1.90;;;;;;;17.64;nan;100393.78;5036804;28;20082;-74
2023/09/24 02:09:16;;;;;;;5.25;2.17;;;;;;;17.66;nan;100402.28;5034598;28;20116;-73
2023/09/24 02:11:41;;;;;;;6.28;2.15;;;;;;;17.68;nan;100399.38;5035278;28;20026;-74
2023/09/24 02:14:07;;;;;;;5.07;1.98;;;;;;;17.65;nan;100387.41;5034721;28;20077;-74
2023/09/24 02:16:33;;;;;;;5.35;1.80;;;;;;;17.62;nan;100386.09;5039096;28;20104;-75
2023/09/24 02:18:58;;;;;;;7.03;1.77;;;;;;;17.69;nan;100396.41;5037479;28;20155;-75
2023/09/24 02:21:24;;;;;;;4.85;2.05;;;;;;;17.69;nan;100401.75;5037115;28;20025;-73
2023/09/24 02:23:54;;;;;;;4.35;1.63;;;;;;;17.70;nan;100394.56;5033498;28;20033;-75
2023/09/24 02:26:19;;;;;;;;;;;;;;;17.70;nan;100389.25;5037230;28;20028;-75
2023/09/24 02:28:44;;;;;;;7.63;1.63;;;;;;;17.68;nan;100391.38;5034722;28;19917;-75
2023/09/24 02:31:12;;;;;;;7.63;1.60;;;;;;;17.61;nan;100375.69;5038315;28;20548;-74
2023/09/24 02:33:38;;;;;;;6.32;1.92;;;;;;;17.65;nan;100380.19;5037239;28;20608;-76
2023/09/24 02:36:08;;;;;;;5.43;1.50;;;;;;;17.62;nan;100393.25;5035573;28;20022;-75
2023/09/24 02:38:34;;;;;;;3.60;1.83;;;;;;;17.71;nan;100407.59;5035529;28;20039;-74
2023/09/24 02:40:59;;;;;;;5.80;1.90;;;;;;;17.70;nan;100405.22;5037374;28;20037;-75
2023/09/24 02:43:25;;;;;;;8.10;1.70;;;;;;;17.70;nan;100421.22;5038489;28;20032;-75
2023/09/24 02:45:50;;;;;;;4.13;1.70;;;;;;;17.72;nan;100409.22;5042053;28;20104;-75
2023/09/24 02:48:18;;;;;;;6.25;2.20;;;;;;;17.73;nan;100399.34;5040895;28;20372;-73
2023/09/24 02:50:44;;;;;;;6.70;1.98;;;;;;;17.72;nan;100395.06;5039791;28;20025;-75
2023/09/24 02:53:09;;;;;;;5.30;1.83;;;;;;;17.65;nan;100396.19;5039845;28;20058;-75
2023/09/24 02:55:36;;;;;;;5.70;2.20;;;;;;;17.70;nan;100406.03;5035902;28;20467;-72
2023/09/24 02:58:04;;;;;;;5.63;2.17;;;;;;;17.71;nan;100402.28;5038014;28;20060;-75
2023/09/24 03:00:35;;;;;;;4.13;1.83;;;;;;;17.72;nan;100398.56;5025367;28;20489;-76
2023/09/24 03:03:01;;;;;;;5.10;2.78;;;;;;;17.73;nan;100394.81;5037633;28;20033;-74
2023/09/24 03:05:28;;;;;;;6.93;2.13;;;;;;;17.67;nan;100390.59;5040730;28;20037;-74
2023/09/24 03:07:55;;;;;;;3.50;2.15;;;;;;;17.60;nan;100364.25;5037554;28;20021;-76
2023/09/24 03:10:21;;;;;;;6.70;2.28;;;;;;;17.62;nan;100364.78;5039886;28;20609;-67
2023/09/24 03:12:47;;;;;;;6.03;2.25;;;;;;;17.52;nan;100348.81;5037249;28;20037;-66
2023/09/24 03:15:13;;;;;;;6.00;2.55;;;;;;;17.57;nan;100361.31;5024860;28;20021;-65
2023/09/24 03:17:41;;;;;;;5.93;2.13;;;;;;;17.61;nan;100368.50;5044256;28;20048;-66
2023/09/24 03:20:40;;;;;;;7.75;2.30;;;;;;;17.63;nan;100371.69;5036003;28;20033;-65
2023/09/24 03:23:08;;;;;;;6.28;2.58;;;;;;;17.59;nan;100357.31;5037048;28;20407;-66
2023/09/24 03:25:34;;;;;;;7.03;2.80;;;;;;;17.40;nan;100335.03;5040996;28;20060;-65
2023/09/24 03:28:03;;;;;;;10.25;2.58;;;;;;;17.56;nan;100357.88;5040042;28;20060;-65
2023/09/24 03:30:29;;;;;;;12.18;3.20;;;;;;;17.58;nan;100360.25;5041042;28;20044;-66
2023/09/24 03:32:55;;;;;;;5.90;2.65;;;;;;;17.53;nan;100355.75;5034967;28;20047;-67
2023/09/24 03:35:23;;;;;;;4.80;2.60;;;;;;;17.57;nan;100362.09;5039762;28;20693;-66
2023/09/24 03:37:50;;;;;;;5.85;2.40;;;;;;;17.47;nan;100343.53;5038801;28;20036;-67
2023/09/24 03:40:20;;;;;;;6.60;3.05;;;;;;;17.42;nan;100352.31;5039991;28;20029;-65
2023/09/24 03:42:49;;;;;;;9.15;3.35;;;;;;;17.41;nan;100357.94;5040685;28;20025;-66
2023/09/24 03:45:17;;;;;;;10.15;3.28;;;;;;;17.47;nan;100375.47;5037099;28;20029;-68
2023/09/24 03:47:45;;;;;;;5.05;3.08;;;;;;;17.48;nan;100377.06;5036746;28;20546;-70
2023/09/24 03:50:16;;;;;;;9.70;3.22;;;;;;;17.44;nan;100376.00;5028775;28;20115;-73
2023/09/24 03:52:43;;;;;;;8.00;2.80;;;;;;;17.42;nan;100378.94;5015552;28;20104;-72
2023/09/24 03:55:09;;;;;;;5.47;2.70;;;;;;;17.35;nan;100359.00;5039610;28;20036;-73
2023/09/24 03:57:36;;;;;;;9.30;3.15;;;;;;;17.44;nan;100381.34;5039694;28;20510;-73
2023/09/24 04:00:06;;;;;;;5.78;2.88;;;;;;;17.35;nan;100372.31;5029399;28;20028;-73
2023/09/24 04:02:34;;;;;;;11.55;3.03;;;;;;;17.34;nan;100376.84;5019596;28;20152;-72
2023/09/24 04:05:00;;;;;;;12.02;3.50;;;;;;;17.34;nan;100365.41;5038831;28;20059;-73
2023/09/24 04:07:25;;;;;;;8.10;3.20;;;;;;;17.36;nan;100381.91;5036633;28;20060;-73
2023/09/24 04:09:51;;;;;;;9.23;3.30;;;;;;;17.41;nan;100385.34;5038166;28;20048;-72
2023/09/24 04:12:17;;;;;;;7.70;2.97;;;;;;;17.29;nan;100363.56;5036080;28;20072;-76
2023/09/24 04:14:42;;;;;;;8.20;3.42;;;;;;;17.24;nan;100368.88;5038730;28;20625;-75
2023/09/24 04:17:09;;;;;;;7.50;3.67;;;;;;;17.23;nan;100373.41;5037467;28;20028;-74
2023/09/24 04:19:34;;;;;;;9.27;3.85;;;;;;;17.32;nan;100396.81;5037994;28;20091;-75
2023/09/24 04:21:59;;;;;;;8.98;3.53;;;;;;;17.30;nan;100396.28;5019467;28;20421;-74
2023/09/24 04:24:26;;;;;;;9.95;3.75;;;;;;;17.25;nan;100397.09;5037439;28;20033;-74
2023/09/24 04:26:53;;;;;;;7.25;4.03;;;;;;;17.34;nan;100408.00;5022731;28;20546;-74
2023/09/24 04:29:19;;;;;;;10.00;4.20;;;;;;;17.33;nan;100417.03;5034534;28;20029;-75
2023/09/24 04:31:44;;;;;;;8.32;4.20;;;;;;;17.25;nan;100398.97;5035808;28;20033;-74
2023/09/24 04:34:12;;;;;;;13.40;5.40;;;;;;;17.27;nan;100410.13;5036589;28;20056;-75
2023/09/24 04:36:41;;;;;;;8.13;4.68;;;;;;;17.21;nan;100396.84;5034424;28;20039;-76
2023/09/24 04:39:09;;;;;;;8.65;4.47;;;;;;;17.21;nan;100402.16;5035680;28;20083;-75
2023/09/24 04:41:36;;;;;;;10.60;4.72;;;;;;;17.21;nan;100407.47;5033137;28;20110;-74
2023/09/24 04:44:02;;;;;;;10.05;4.80;;;;;;;17.22;nan;100403.75;5033815;28;20113;-74
2023/09/24 04:46:27;;;;;;;12.95;4.60;;;;;;;16.96;nan;100362.28;5036106;28;20454;-75
2023/09/24 04:48:53;;;;;;;12.45;5.07;;;;;;;17.18;nan;100400.03;5016955;28;20055;-74
2023/09/24 04:51:18;;;;;;;9.15;4.57;;;;;;;17.15;nan;100392.56;5037617;28;20121;-73
2023/09/24 04:53:44;;;;;;;8.35;4.40;;;;;;;17.12;nan;100398.44;5037305;28;20017;-74
2023/09/24 04:56:09;;;;;;;13.48;4.78;;;;;;;17.17;nan;100405.63;5035936;28;20116;-73
2023/09/24 04:58:35;;;;;;;13.70;5.25;;;;;;;17.02;nan;100398.44;5033941;28;20099;-68
2023/09/24 05:01:07;;;;;;;12.85;4.75;;;;;;;17.07;nan;100411.75;5023024;28;20036;-68
2023/09/24 05:03:37;;;;;;;16.27;5.53;;;;;;;17.03;nan;100400.06;5035770;28;20037;-68
2023/09/24 05:06:06;;;;;;;9.45;4.75;;;;;;;17.05;nan;100415.72;5038453;28;20028;-68
2023/09/24 05:08:32;;;;;;;14.50;4.27;;;;;;;17.01;nan;100415.47;5036888;28;20061;-68
2023/09/24 05:10:58;;;;;;;17.55;4.53;;;;;;;17.00;nan;100408.56;5035791;28;20277;-69
2023/09/24 05:13:24;;;;;;;10.27;5.30;;;;;;;16.90;nan;100395.25;5037283;28;20037;-69
2023/09/24 05:15:53;;;;;;;10.43;4.38;;;;;;;17.03;nan;100416.00;5036684;28;20057;-69
2023/09/24 05:18:19;;;;;;;13.77;4.40;;;;;;;16.95;nan;100397.91;5036062;28;20075;-69
2023/09/24 05:20:44;;;;;;;12.77;5.03;;;;;;;17.03;nan;100400.06;5035589;28;20029;-68
2023/09/24 05:23:10;;;;;;;84.57;17.88;;;;;;;16.95;nan;100368.66;5033613;28;20029;-69
2023/09/24 05:25:36;;;;;;;13.18;6.22;;;;;;;17.00;nan;100377.44;5035185;28;20039;-68
2023/09/24 05:28:02;;;;;;;10.15;5.50;;;;;;;17.03;nan;100381.44;5035159;28;20025;-70
2023/09/24 05:30:28;;;;;;;14.98;5.93;;;;;;;17.00;nan;100390.75;5034955;28;20074;-69
2023/09/24 05:32:53;;;;;;;14.60;6.50;;;;;;;16.94;nan;100386.47;5035037;28;20727;-69
2023/09/24 05:35:18;;;;;;;9.57;6.07;;;;;;;16.95;nan;100393.41;5033671;28;20018;-69
2023/09/24 05:37:44;;;;;;;13.32;5.82;;;;;;;16.93;nan;100387.56;5035761;28;20056;-69
2023/09/24 05:40:10;;;;;;;12.18;6.20;;;;;;;16.91;nan;100388.88;5034281;28;20025;-68
2023/09/24 05:42:35;;;;;;;12.00;6.32;;;;;;;16.98;nan;100411.50;5035476;28;20148;-69
2023/09/24 05:45:01;;;;;;;9.10;5.72;;;;;;;16.94;nan;100413.06;5019362;28;20133;-67
2023/09/24 05:47:27;;;;;;;11.60;6.22;;;;;;;16.98;nan;100427.44;5034451;28;20025;-68
2023/09/24 05:49:53;;;;;;;12.38;6.05;;;;;;;17.00;nan;100429.84;5033385;28;20310;-66
2023/09/24 05:52:18;;;;;;;12.15;5.95;;;;;;;17.07;nan;100451.66;5036987;28;20036;-68
2023/09/24 05:54:44;;;;;;;11.32;6.05;;;;;;;17.08;nan;100457.78;5033171;28;20485;-68
2023/09/24 05:57:10;;;;;;;8.98;5.32;;;;;;;17.08;nan;100453.25;5036391;28;20032;-68
2023/09/24 05:59:36;;;;;;;8.90;5.35;;;;;;;17.08;nan;100455.91;5035473;28;21213;-67
2023/09/24 06:02:01;;;;;;;11.02;5.78;;;;;;;17.13;nan;100461.22;5036056;28;20030;-68
2023/09/24 06:04:26;;;;;;;11.45;5.95;;;;;;;17.14;nan;100456.69;5035886;28;20029;-68
2023/09/24 06:06:52;;;;;;;14.40;5.93;;;;;;;17.17;nan;100470.28;5033324;28;20078;-67
2023/09/24 06:09:17;;;;;;;11.95;5.85;;;;;;;17.20;nan;100477.72;5034137;28;20021;-67
2023/09/24 06:11:46;;;;;;;10.77;6.15;;;;;;;17.28;nan;100489.69;5035547;28;20030;-68
2023/09/24 06:14:11;;;;;;;11.23;6.25;;;;;;;17.19;nan;100485.97;5035057;28;20040;-69
2023/09/24 06:16:37;;;;;;;9.13;5.60;;;;;;;17.33;nan;100512.84;5038117;28;20021;-69
2023/09/24 06:19:03;;;;;;;13.30;5.70;;;;;;;17.37;nan;100514.72;5037794;28;20067;-69
2023/09/24 06:21:29;;;;;;;9.73;5.43;;;;;;;17.40;nan;100516.81;5036967;28;20041;-69
2023/09/24 06:23:58;;;;;;;9.98;5.60;;;;;;;17.38;nan;100516.31;5022762;28;20448;-69
2023/09/24 06:26:24;;;;;;;10.15;5.18;;;;;;;17.46;nan;100517.63;5034956;28;20025;-69
2023/09/24 06:28:50;;;;;;;10.38;5.50;;;;;;;17.43;nan;100508.31;5038544;28;20029;-69
2023/09/24 06:31:16;;;;;;;9.48;5.38;;;;;;;17.33;nan;100497.66;5036996;28;20482;-68
2023/09/24 06:33:41;;;;;;;11.88;5.18;;;;;;;17.59;nan;100548.25;5038819;28;20025;-70
2023/09/24 06:36:09;;;;;;;9.38;5.57;;;;;;;17.61;nan;100554.91;5021882;28;20053;-69
2023/09/24 06:38:34;;;;;;;8.55;5.20;;;;;;;17.65;nan;100563.16;5037609;28;20040;-68
2023/09/24 06:41:03;;;;;;;10.90;5.50;;;;;;;17.62;nan;100545.84;5039637;28;20391;-68
2023/09/24 06:43:30;;;;;;;8.15;5.10;;;;;;;17.71;nan;100550.63;5038162;28;20025;-69
2023/09/24 06:45:56;;;;;;;11.27;5.35;;;;;;;17.79;nan;100544.75;5025513;28;20082;-69
2023/09/24 06:48:25;;;;;;;9.32;5.60;;;;;;;17.79;nan;100524.25;5038587;28;20037;-69
2023/09/24 06:50:53;;;;;;;10.43;5.07;;;;;;;17.73;nan;100516.53;5026967;28;20033;-69
2023/09/24 06:53:19;;;;;;;10.20;4.77;;;;;;;17.79;nan;100526.09;5038687;28;20047;-69
2023/09/24 06:55:45;;;;;;;12.65;5.22;;;;;;;17.81;nan;100532.81;5041165;28;20278;-68
2023/09/24 06:58:12;;;;;;;7.20;4.90;;;;;;;17.81;nan;100532.81;5021036;28;20395;-69
2023/09/24 07:00:37;;;;;;;10.05;5.40;;;;;;;17.74;nan;100520.78;5037436;28;20145;-67
2023/09/24 07:03:03;;;;;;;8.23;5.20;;;;;;;17.81;nan;100518.66;5039550;28;20667;-68
2023/09/24 07:05:29;;;;;;;11.05;5.03;;;;;;;17.88;nan;100515.72;5040300;28;20032;-69
2023/09/24 07:07:54;;;;;;;9.35;4.97;;;;;;;17.94;nan;100518.13;5041069;28;20594;-67
2023/09/24 07:10:22;;;;;;;11.20;5.20;;;;;;;17.92;nan;100517.59;5041862;28;20037;-67
2023/09/24 07:12:48;;;;;;;8.32;4.57;;;;;;;17.90;nan;100509.06;5038451;28;20037;-68
2023/09/24 07:15:13;;;;;;;9.38;4.90;;;;;;;17.96;nan;100507.19;5035393;28;20029;-68
2023/09/24 07:17:38;;;;;;;8.52;4.70;;;;;;;18.04;nan;100503.97;5037329;28;20025;-67
2023/09/24 07:20:05;;;;;;;9.35;5.15;;;;;;;18.10;nan;100504.72;5039481;28;20028;-68
2023/09/24 07:22:30;;;;;;;9.57;4.70;;;;;;;18.17;nan;100505.25;5037956;28;20037;-67
2023/09/24 07:24:56;;;;;;;8.85;4.18;;;;;;;18.15;nan;100486.88;5038995;28;20033;-67
2023/09/24 07:27:24;;;;;;;8.88;4.78;;;;;;;18.20;nan;100492.19;5040120;28;20037;-68
2023/09/24 07:29:49;;;;;;;8.82;4.97;;;;;;;18.26;nan;100508.94;5037340;28;20017;-67
2023/09/24 07:32:15;;;;;;;11.68;4.40;;;;;;;18.29;nan;100508.38;5040155;28;20429;-67
2023/09/24 07:34:40;;;;;;;8.63;4.40;;;;;;;18.22;nan;100506.03;5037074;28;20035;-66
2023/09/24 07:37:08;;;;;;;8.50;4.80;;;;;;;18.23;nan;100510.28;5038065;28;20024;-66
2023/09/24 07:39:36;;;;;;;5.72;4.10;;;;;;;18.31;nan;100532.91;5038940;28;21632;-66
2023/09/24 07:42:02;;;;;;;10.13;4.57;;;;;;;18.25;nan;100542.00;5039337;28;20041;-67
2023/09/24 07:44:27;;;;;;;7.60;4.35;;;;;;;18.35;nan;100552.63;5036041;28;20725;-66
2023/09/24 07:46:54;;;;;;;9.23;4.95;;;;;;;18.40;nan;100552.59;5038065;28;20032;-65
2023/09/24 07:49:19;;;;;;;5.63;4.15;;;;;;;18.39;nan;100543.00;5035611;28;20760;-67
2023/09/24 07:51:45;;;;;;;5.68;4.03;;;;;;;18.42;nan;100526.47;5038317;28;20036;-66
2023/09/24 07:54:11;;;;;;;5.78;4.13;;;;;;;18.57;nan;100522.91;5037359;28;20017;-67
2023/09/24 07:56:41;;;;;;;4.95;3.42;;;;;;;18.52;nan;100501.63;5022085;28;20079;-67
2023/09/24 07:59:07;;;;;;;7.45;3.85;;;;;;;18.54;nan;100504.81;5037801;28;20045;-67
2023/09/24 08:01:33;;;;;;;6.82;3.85;;;;;;;18.59;nan;100474.66;5042104;28;20099;-66
2023/09/24 08:03:59;;;;;;;8.43;3.80;;;;;;;18.67;nan;100466.03;5038943;28;20148;-66
2023/09/24 08:06:27;;;;;;;11.98;3.85;;;;;;;18.64;nan;100454.06;5040619;28;20438;-66
2023/09/24 08:08:53;;;;;;;7.53;4.07;;;;;;;18.73;nan;100416.16;5038469;28;20116;-66
2023/09/24 08:11:18;;;;;;;7.20;3.60;;;;;;;;;;5039675;28;20159;-67
2023/09/24 08:13:43;;;;;;;7.80;3.73;;;;;;;18.87;nan;100465.94;5022111;28;20132;-71
2023/09/24 08:16:09;;;;;;;7.72;4.28;;;;;;;;;;5035647;28;20040;-71
2023/09/24 08:18:34;;;;;;;7.07;3.38;;;;;;;18.90;nan;100430.69;5035128;28;20041;-71
2023/09/24 08:20:59;;;;;;;8.00;3.20;;;;;;;18.96;nan;100435.97;5036834;28;20104;-71
2023/09/24 08:23:25;;;;;;;6.22;3.75;;;;;;;18.94;nan;100385.59;5037216;28;20479;-71
2023/09/24 08:25:51;;;;;;;9.68;3.10;;;;;;;18.88;nan;100451.50;5038983;28;20364;-71
2023/09/24 08:28:17;;;;;;;7.55;3.08;;;;;;;18.98;nan;100407.16;5036972;28;20107;-72
2023/09/24 08:30:43;;;;;;;6.20;2.90;;;;;;;19.00;nan;100442.34;5037091;28;20025;-70
2023/09/24 08:33:09;;;;;;;11.05;3.20;;;;;;;18.95;nan;100413.06;5037657;28;20037;-71
2023/09/24 08:35:35;;;;;;;5.65;3.17;;;;;;;19.02;nan;100425.00;5037818;28;20108;-70
2023/09/24 08:38:01;;;;;;;8.93;3.38;;;;;;;19.11;nan;100430.53;5035892;28;20056;-70
2023/09/24 08:40:32;;;;;;;4.95;2.63;;;;;;;19.07;nan;100400.91;5035912;28;20114;-71
2023/09/24 08:42:57;;;;;;;9.15;3.45;;;;;;;;;;5038241;28;20033;-70
2023/09/24 08:45:28;;;;;;;7.10;2.72;;;;;;;19.15;nan;100479.59;5039762;28;20143;-71
2023/09/24 08:47:54;;;;;;;6.47;3.28;;;;;;;19.19;nan;100498.53;5038796;28;20367;-70
2023/09/24 08:50:20;;;;;;;8.68;3.80;;;;;;;19.17;nan;100428.59;5037329;28;20101;-71
2023/09/24 08:52:46;;;;;;;7.95;3.17;;;;;;;19.20;nan;100377.31;5037353;28;20941;-71
2023/09/24 08:55:13;;;;;;;6.32;3.10;;;;;;;19.21;nan;100419.75;5035540;28;20075;-71
2023/09/24 08:57:40;;;;;;;4.45;3.15;;;;;;;19.23;nan;100425.59;5037524;28;20497;-71
2023/09/24 09:00:09;;;;;;;7.03;3.60;;;;;;;19.22;nan;100492.63;5037163;28;20029;-71
2023/09/24 09:02:34;;;;;;;7.47;3.10;;;;;;;;;;5036481;28;20044;-71
2023/09/24 09:05:00;;;;;;;7.88;3.17;;;;;;;;;;5037603;28;20021;-69
2023/09/24 09:07:25;;;;;;;7.38;2.80;;;;;;;19.46;nan;100468.63;5017644;28;20078;-70
2023/09/24 09:09:55;;;;;;;10.52;3.53;;;;;;;19.55;nan;100472.28;5036710;28;20040;-72
2023/09/24 09:12:23;;;;;;;6.97;3.70;;;;;;;19.61;nan;100479.19;5038481;28;20115;-73
2023/09/24 09:14:48;;;;;;;6.43;3.33;;;;;;;;;;5036574;28;20040;-74
2023/09/24 09:17:14;;;;;;;10.38;4.13;;;;;;;19.69;nan;100489.25;5035390;28;20026;-73
2023/09/24 09:19:55;;;;;;;5.75;3.17;;;;;;;19.77;nan;100493.19;5038279;28;20033;-73
2023/09/24 09:22:24;;;;;;;8.80;4.97;;;;;;;;;;5038477;28;20033;-73
2023/09/24 09:25:07;;;;;;;6.07;3.40;;;;;;;19.85;nan;100537.19;5035985;28;20030;-73
2023/09/24 09:27:39;;;;;;;9.35;3.33;;;;;;;19.94;nan;100493.53;5036684;28;20032;-72
2023/09/24 09:30:20;;;;;;;10.85;3.67;;;;;;;19.96;nan;100488.69;5037475;28;20487;-73
2023/09/24 09:32:47;;;;;;;5.40;2.97;;;;;;;19.98;nan;100478.50;5035861;28;20415;-70
2023/09/24 09:35:14;;;;;;;8.40;3.30;;;;;;;20.04;nan;100439.16;5036408;28;20018;-74
2023/09/24 09:37:41;;;;;;;6.25;3.10;;;;;;;20.14;nan;100459.63;5035341;28;20033;-73
2023/09/24 09:40:08;;;;;;;6.15;3.10;;;;;;;20.22;nan;100506.31;5037832;28;20029;-73
2023/09/24 09:42:33;;;;;;;5.88;3.10;;;;;;;;;;5032452;28;20553;-72
2023/09/24 09:45:07;;;;;;;7.45;3.45;;;;;;;20.35;nan;100446.75;5037736;28;20057;-72
2023/09/24 09:47:34;;;;;;;3.90;3.00;;;;;;;20.40;nan;100462.75;5039170;28;20025;-74
2023/09/24 09:50:00;;;;;;;8.35;3.15;;;;;;;20.42;nan;100428.47;5038145;28;20059;-73
2023/09/24 09:52:34;;;;;;;22.30;20.17;;;;;;;20.54;nan;100462.81;5038808;28;20837;-72
2023/09/24 09:55:04;;;;;;;7.18;5.10;;;;;;;20.72;nan;100469.28;5041529;28;20029;-63
2023/09/24 09:57:32;;;;;;;7.70;3.25;;;;;;;20.76;nan;100465.72;5041029;28;20021;-63
2023/09/24 09:59:58;;;;;;;8.35;3.17;;;;;;;20.82;nan;100448.47;5040076;28;20032;-66
2023/09/24 10:02:26;;;;;;;6.95;2.92;;;;;;;20.95;nan;100448.81;5041165;28;20029;-67
2023/09/24 10:04:52;;;;;;;6.03;2.60;;;;;;;20.99;nan;100447.16;5041650;28;20051;-67
2023/09/24 10:07:18;;;;;;;8.35;3.20;;;;;;;21.04;nan;100471.94;5038665;28;20029;-63
2023/09/24 10:09:44;;;;;;;7.32;2.70;;;;;;;21.09;nan;100468.38;5039774;28;20059;-66
2023/09/24 10:12:09;;;;;;;7.55;3.05;;;;;;;21.11;nan;100468.09;5039827;28;20065;-66
2023/09/24 10:14:39;;;;;;;5.65;2.95;;;;;;;21.13;nan;100464.06;5026617;28;20021;-66
2023/09/24 10:17:23;;;;;;;3.47;2.45;;;;;;;21.22;nan;100461.50;5041392;28;20036;-65
2023/09/24 10:20:08;;;;;;;5.22;2.97;;;;;;;21.26;nan;100465.16;5042678;28;20083;-64
2023/09/24 10:22:35;;;;;;;7.28;3.50;;;;;;;21.28;nan;100465.66;5041512;28;20029;-63
2023/09/24 10:25:21;;;;;;;5.57;3.20;;;;;;;21.31;nan;100491.88;5040060;28;20044;-66
2023/09/24 10:28:06;;;;;;;6.50;3.00;;;;;;;21.30;nan;100495.63;5039756;28;20024;-68
2023/09/24 10:31:07;;;;;;;6.68;3.17;;;;;;;21.25;nan;100480.44;5022207;28;20056;-65
2023/09/24 10:33:51;;;;;;;8.10;3.60;;;;;;;21.19;nan;100449.50;5041962;28;20047;-66
2023/09/24 10:36:23;;;;;;;5.90;3.30;;;;;;;21.13;nan;100456.00;5041122;28;20426;-66
2023/09/24 10:39:05;;;;;;;8.43;3.80;;;;;;;21.21;nan;100474.09;5044172;28;20052;-66
2023/09/24 10:41:32;;;;;;;6.35;3.65;;;;;;;21.22;nan;100446.22;5043650;28;20485;-65
2023/09/24 10:44:22;;;;;;;6.50;3.55;;;;;;;21.27;nan;100463.31;5020123;28;20034;-65
2023/09/24 10:46:47;;;;;;;7.68;3.50;;;;;;;21.27;nan;100456.06;5038140;28;20548;-67
2023/09/24 10:49:24;;;;;;;7.45;3.88;;;;;;;21.34;nan;100467.19;5037567;28;20024;-67
2023/09/24 10:51:59;;;;;;;9.07;3.70;;;;;;;;;;5042757;28;20029;-68
2023/09/24 10:54:24;;;;;;;5.05;3.40;;;;;;;21.36;nan;100435.53;5042213;28;20021;-68
2023/09/24 10:56:50;;;;;;;4.45;3.13;;;;;;;21.38;nan;100446.75;5042191;28;20031;-66
2023/09/24 10:59:16;;;;;;;4.57;3.17;;;;;;;21.36;nan;100440.91;5020775;28;20040;-69
2023/09/24 11:01:45;;;;;;;5.53;2.65;;;;;;;21.29;nan;100451.19;5039388;28;20107;-67
2023/09/24 11:04:10;;;;;;;5.35;2.97;;;;;;;21.39;nan;100440.31;5039473;28;20025;-69
2023/09/24 11:06:36;;;;;;;6.70;3.10;;;;;;;21.34;nan;100428.88;5041376;28;20044;-67
2023/09/24 11:09:19;;;;;;;4.45;3.00;;;;;;;21.47;nan;100440.72;5038728;28;20029;-66
2023/09/24 11:11:45;;;;;;;6.03;3.60;;;;;;;21.51;nan;100458.59;5038229;28;20021;-70
2023/09/24 11:14:22;;;;;;;6.18;3.28;;;;;;;21.54;nan;100385.66;5037859;28;20147;-66
2023/09/24 11:16:52;;;;;;;5.38;2.90;;;;;;;;;;5036914;28;20065;-67
2023/09/24 11:19:44;;;;;;;7.07;3.50;;;;;;;21.61;nan;100484.41;5022123;28;20060;-67
2023/09/24 11:22:19;;;;;;;6.85;2.67;;;;;;;21.67;nan;100492.06;5037373;28;20031;-66
2023/09/24 11:25:11;;;;;;;4.63;2.85;;;;;;;21.66;nan;100508.41;5038744;28;20024;-65
2023/09/24 11:27:49;;;;;;;3.70;2.50;;;;;;;21.76;nan;100486.00;5038386;28;20032;-66
2023/09/24 11:30:16;;;;;;;7.57;2.60;;;;;;;21.73;nan;100475.88;5041497;28;20024;-67
2023/09/24 11:32:46;;;;;;;5.78;2.60;;;;;;;21.66;nan;100493.13;5038230;28;20025;-66
2023/09/24 11:35:16;;;;;;;3.55;2.85;;;;;;;21.58;nan;100426.84;5036160;28;20057;-67
2023/09/24 11:37:53;;;;;;;6.78;2.70;;;;;;;21.59;nan;100473.19;5037253;28;20048;-66
2023/09/24 11:40:33;;;;;;;6.18;3.03;;;;;;;21.60;nan;100470.22;5038572;28;20021;-67
2023/09/24 11:43:02;;;;;;;4.93;3.05;;;;;;;21.55;nan;100504.34;5035166;28;20029;-68
2023/09/24 11:45:55;;;;;;;5.35;2.97;;;;;;;21.60;nan;100488.97;5036758;28;20017;-66
2023/09/24 11:48:27;;;;;;;4.88;2.45;;;;;;;21.59;nan;100475.88;5036538;28;20033;-66
2023/09/24 11:50:54;;;;;;;7.72;2.85;;;;;;;21.56;nan;100492.53;5037691;28;20029;-66